Time;durP1;ratioP1;P1;durP2;ratioP2;P2;SDS_P1;SDS_P2;PMS_P1;PMS_P2;Temp;Humidity;BMP_temperature;BMP_pressure;BME280_temperature;BME280_humidity;BME280_pressure;Samples;Min_cycle;Max_cycle;Signal;HPM_P1;HPM_P2
2024/03/11 00:01:12;;;;;;;0.77;0.77;;;5.00;99.90;;;;;;5111031;27;20031;-74
2024/03/11 00:03:38;;;;;;;2.17;0.80;;;5.00;99.90;;;;;;5115055;27;20081;-74
2024/03/11 00:06:04;;;;;;;1.53;0.90;;;4.90;99.90;;;;;;5108623;27;20028;-74
2024/03/11 00:08:31;;;;;;;0.73;0.73;;;4.90;99.90;;;;;;5111236;28;20737;-74
2024/03/11 00:10:59;;;;;;;1.00;0.80;;;4.80;99.90;;;;;;5110809;27;20072;-74
2024/03/11 00:13:32;;;;;;;1.00;0.90;;;4.70;99.90;;;;;;5113135;28;20051;-74
2024/03/11 00:15:59;;;;;;;1.40;1.00;;;4.70;99.90;;;;;;5109234;27;20038;-75
2024/03/11 00:18:25;;;;;;;1.50;1.03;;;4.60;99.90;;;;;;5117356;27;20092;-74
2024/03/11 00:20:50;;;;;;;1.50;1.17;;;4.60;99.90;;;;;;5113418;27;20032;-74
2024/03/11 00:23:16;;;;;;;2.30;1.50;;;4.60;99.90;;;;;;5112045;28;20024;-74
2024/03/11 00:25:43;;;;;;;2.20;1.30;;;4.50;99.90;;;;;;5105040;27;20027;-74
2024/03/11 00:28:09;;;;;;;4.67;1.10;;;4.40;99.90;;;;;;5108325;27;20019;-74
2024/03/11 00:30:35;;;;;;;1.50;1.20;;;4.40;99.90;;;;;;5108706;27;20060;-74
2024/03/11 00:33:02;;;;;;;2.50;1.20;;;4.30;99.90;;;;;;5109590;27;20058;-74
2024/03/11 00:35:28;;;;;;;2.77;1.40;;;4.30;99.90;;;;;;5115062;27;20447;-74
2024/03/11 00:37:54;;;;;;;2.30;1.37;;;4.20;99.90;;;;;;5108295;28;20083;-74
2024/03/11 00:40:20;;;;;;;3.60;2.53;;;4.20;99.90;;;;;;5111964;28;20084;-74
2024/03/11 00:42:45;;;;;;;4.63;3.10;;;4.10;99.90;;;;;;5108345;28;20548;-74
2024/03/11 00:45:11;;;;;;;6.00;4.00;;;4.10;99.90;;;;;;5107526;27;20023;-74
2024/03/11 00:47:41;;;;;;;6.90;4.23;;;4.10;99.90;;;;;;5108708;27;20035;-75
2024/03/11 00:50:07;;;;;;;7.37;4.97;;;4.00;99.90;;;;;;5110604;28;20038;-74
2024/03/11 00:52:34;;;;;;;7.27;4.80;;;4.00;99.90;;;;;;5108972;28;20399;-74
2024/03/11 00:54:59;;;;;;;7.27;4.87;;;4.00;99.90;;;;;;5107485;28;20032;-74
2024/03/11 00:57:25;;;;;;;7.90;5.07;;;3.90;99.90;;;;;;5108033;28;20038;-74
2024/03/11 00:59:51;;;;;;;7.90;4.73;;;3.90;99.90;;;;;;5109349;28;20388;-73
2024/03/11 01:02:16;;;;;;;7.57;4.47;;;3.90;99.90;;;;;;5115129;27;21724;-73
2024/03/11 01:04:42;;;;;;;7.60;4.77;;;3.80;99.90;;;;;;5108256;27;20039;-74
2024/03/11 01:07:09;;;;;;;10.10;6.23;;;3.80;99.90;;;;;;5108888;27;20027;-75
2024/03/11 01:09:35;;;;;;;10.07;6.13;;;3.80;99.90;;;;;;5112072;28;20603;-74
2024/03/11 01:12:01;;;;;;;7.77;4.90;;;3.70;99.90;;;;;;5112953;27;20036;-74
2024/03/11 01:14:26;;;;;;;4.67;2.50;;;3.70;99.90;;;;;;5111051;27;20017;-74
2024/03/11 01:16:52;;;;;;;2.63;1.50;;;3.70;99.90;;;;;;5114700;28;20019;-74
2024/03/11 01:19:21;;;;;;;2.33;1.40;;;3.60;99.90;;;;;;5112614;28;20019;-75
2024/03/11 01:21:48;;;;;;;1.87;0.90;;;3.60;99.90;;;;;;5116735;28;20092;-74
2024/03/11 01:24:16;;;;;;;1.73;1.10;;;3.60;99.90;;;;;;5109322;28;20027;-74
2024/03/11 01:26:45;;;;;;;1.40;1.00;;;3.60;99.90;;;;;;5107640;28;20019;-74
2024/03/11 01:29:10;;;;;;;1.33;0.80;;;3.60;99.90;;;;;;5109582;28;20023;-74
2024/03/11 01:31:36;;;;;;;2.90;0.93;;;3.60;99.90;;;;;;5109821;28;20031;-75
2024/03/11 01:34:03;;;;;;;1.10;0.90;;;3.50;99.90;;;;;;5110706;28;20023;-74
2024/03/11 01:36:34;;;;;;;1.40;1.00;;;3.50;99.90;;;;;;5110807;27;20031;-75
2024/03/11 01:38:59;;;;;;;6.70;2.40;;;3.50;99.90;;;;;;5107430;28;20034;-73
2024/03/11 01:41:25;;;;;;;11.23;3.60;;;3.50;99.90;;;;;;5109919;28;20415;-74
2024/03/11 01:43:50;;;;;;;6.17;1.70;;;3.50;99.90;;;;;;5111441;28;20024;-74
2024/03/11 01:46:16;;;;;;;1.53;0.97;;;3.50;99.90;;;;;;5114660;28;20530;-74
2024/03/11 01:48:42;;;;;;;2.80;1.13;;;3.50;99.90;;;;;;5107698;28;20391;-74
2024/03/11 01:51:07;;;;;;;8.70;3.40;;;3.50;99.90;;;;;;5109893;28;20067;-74
2024/03/11 01:53:33;;;;;;;4.10;1.30;;;3.40;99.90;;;;;;5107428;28;20027;-75
2024/03/11 01:55:59;;;;;;;1.53;1.00;;;3.40;99.90;;;;;;5114247;28;20023;-75
2024/03/11 01:58:27;;;;;;;1.57;0.90;;;3.40;99.90;;;;;;5109360;28;20038;-75
2024/03/11 02:00:53;;;;;;;1.43;1.00;;;3.30;99.90;;;;;;5111018;28;20019;-74
2024/03/11 02:03:20;;;;;;;1.63;0.90;;;3.30;99.90;;;;;;5117340;27;20148;-74
2024/03/11 02:05:45;;;;;;;1.07;0.80;;;3.30;99.90;;;;;;5134853;27;20487;-73
2024/03/11 02:08:12;;;;;;;1.10;0.87;;;3.30;99.90;;;;;;5136237;27;20015;-74
2024/03/11 02:10:39;;;;;;;14.67;4.93;;;3.20;99.90;;;;;;5123093;27;20482;-74
2024/03/11 02:13:05;;;;;;;13.20;4.50;;;3.20;99.90;;;;;;5114970;28;20068;-74
2024/03/11 02:15:30;;;;;;;6.57;2.23;;;3.20;99.90;;;;;;5122288;27;20039;-74
2024/03/11 02:17:56;;;;;;;3.73;1.80;;;3.20;99.90;;;;;;5114253;28;20019;-74
2024/03/11 02:20:22;;;;;;;10.80;3.80;;;3.10;99.90;;;;;;5124733;27;20100;-74
2024/03/11 02:22:49;;;;;;;5.53;1.73;;;3.10;99.90;;;;;;5135667;27;20079;-74
2024/03/11 02:25:20;;;;;;;15.40;5.50;;;3.10;99.90;;;;;;5134982;27;20026;-74
2024/03/11 02:27:47;;;;;;;10.27;4.03;;;3.10;99.90;;;;;;5125526;27;20058;-74
2024/03/11 02:30:15;;;;;;;5.00;1.70;;;3.10;99.90;;;;;;5116194;27;20034;-74
2024/03/11 02:32:41;;;;;;;6.47;2.20;;;3.00;99.90;;;;;;5114603;28;20371;-74
2024/03/11 02:35:07;;;;;;;7.43;2.83;;;3.00;99.90;;;;;;5114687;28;20019;-74
2024/03/11 02:37:33;;;;;;;16.03;5.93;;;3.00;99.90;;;;;;5115247;28;20104;-74
2024/03/11 02:40:00;;;;;;;4.87;2.27;;;3.00;99.90;;;;;;5123398;27;20107;-74
2024/03/11 02:42:25;;;;;;;2.13;1.30;;;3.00;99.90;;;;;;5104972;28;20030;-74
2024/03/11 02:44:53;;;;;;;3.77;1.33;;;3.00;99.90;;;;;;5093712;28;20543;-74
2024/03/11 02:47:19;;;;;;;2.20;0.90;;;2.90;99.90;;;;;;5112446;27;20023;-74
2024/03/11 02:49:44;;;;;;;1.50;1.00;;;2.90;99.90;;;;;;5133643;27;20118;-74
2024/03/11 02:52:10;;;;;;;2.60;1.40;;;2.90;99.90;;;;;;5135187;27;20026;-74
2024/03/11 02:54:37;;;;;;;2.13;0.90;;;2.90;99.90;;;;;;5134366;27;20020;-74
2024/03/11 02:57:03;;;;;;;3.37;1.07;;;2.90;99.90;;;;;;5135182;27;20023;-75
2024/03/11 02:59:28;;;;;;;2.10;0.80;;;2.90;99.90;;;;;;5129893;27;20386;-74
2024/03/11 03:01:54;;;;;;;0.80;0.80;;;2.90;99.90;;;;;;5134261;27;20016;-74
2024/03/11 03:04:20;;;;;;;2.17;0.90;;;2.80;99.90;;;;;;5133858;27;20023;-74
2024/03/11 03:06:45;;;;;;;1.93;1.00;;;2.80;99.90;;;;;;5134779;27;20023;-74
2024/03/11 03:09:11;;;;;;;4.13;1.60;;;2.80;99.90;;;;;;5134518;27;20019;-74
2024/03/11 03:11:40;;;;;;;3.77;2.10;;;2.80;99.90;;;;;;5120519;27;20027;-74
2024/03/11 03:14:06;;;;;;;2.13;1.50;;;2.70;99.90;;;;;;5117830;27;20027;-74
2024/03/11 03:16:32;;;;;;;2.63;1.50;;;2.70;99.90;;;;;;5132505;27;20679;-74
2024/03/11 03:18:58;;;;;;;2.33;1.43;;;2.60;99.90;;;;;;5132425;27;20019;-74
2024/03/11 03:21:25;;;;;;;2.90;1.53;;;2.50;99.90;;;;;;5134507;27;20011;-74
2024/03/11 03:23:53;;;;;;;2.70;1.53;;;2.50;99.90;;;;;;5134017;27;20098;-74
2024/03/11 03:26:20;;;;;;;3.73;1.70;;;2.40;99.90;;;;;;5133859;27;20019;-73
2024/03/11 03:28:47;;;;;;;3.20;1.90;;;2.40;99.90;;;;;;5120163;27;20027;-74
2024/03/11 03:31:12;;;;;;;3.00;2.00;;;2.40;99.90;;;;;;5113424;28;20131;-74
2024/03/11 03:33:38;;;;;;;2.60;1.70;;;2.30;99.90;;;;;;5113380;28;20027;-74
2024/03/11 03:36:04;;;;;;;2.47;1.57;;;2.30;99.90;;;;;;5112703;28;20360;-74
2024/03/11 03:38:30;;;;;;;1.60;1.17;;;2.30;99.90;;;;;;5113438;28;20107;-74
2024/03/11 03:40:56;;;;;;;3.17;1.60;;;2.30;99.90;;;;;;5107172;28;20024;-75
2024/03/11 03:43:21;;;;;;;3.37;2.37;;;2.30;99.90;;;;;;5113014;27;20169;-74
2024/03/11 03:45:48;;;;;;;5.77;3.70;;;2.30;99.90;;;;;;5132424;27;20027;-74
2024/03/11 03:48:13;;;;;;;6.23;2.67;;;2.30;99.90;;;;;;5133832;27;20019;-75
2024/03/11 03:50:39;;;;;;;2.40;1.83;;;2.30;99.90;;;;;;5117901;27;20024;-74
2024/03/11 03:53:04;;;;;;;3.80;1.93;;;2.20;99.90;;;;;;5117055;27;20077;-74
2024/03/11 03:55:30;;;;;;;3.97;2.17;;;2.20;99.90;;;;;;5112408;28;20122;-74
2024/03/11 03:57:55;;;;;;;13.47;3.77;;;2.30;99.90;;;;;;5113410;28;20032;-74
2024/03/11 04:00:21;;;;;;;7.57;3.50;;;2.20;99.90;;;;;;5126929;27;20043;-74
2024/03/11 04:02:49;;;;;;;5.27;3.20;;;2.20;99.90;;;;;;5133902;27;20094;-73
2024/03/11 04:05:16;;;;;;;6.07;3.20;;;2.20;99.90;;;;;;5119271;27;20024;-74
2024/03/11 04:07:42;;;;;;;5.63;2.53;;;2.10;99.90;;;;;;5113205;27;20094;-75
2024/03/11 04:10:12;;;;;;;6.17;3.53;;;2.10;99.90;;;;;;5133457;27;20547;-74
2024/03/11 04:12:41;;;;;;;14.13;5.13;;;2.10;99.90;;;;;;5132858;27;20076;-74
2024/03/11 04:15:09;;;;;;;12.30;4.63;;;2.10;99.90;;;;;;5122935;27;20044;-74
2024/03/11 04:17:35;;;;;;;37.90;9.83;;;2.10;99.90;;;;;;5112502;28;20032;-74
2024/03/11 04:20:10;;;;;;;19.33;5.20;;;2.10;99.90;;;;;;5120015;27;20107;-74
2024/03/11 04:22:37;;;;;;;5.38;2.03;;;2.20;99.90;;;;;;5116308;27;20023;-74
2024/03/11 04:25:05;;;;;;;3.00;1.40;;;2.20;99.90;;;;;;5127864;27;20035;-74
2024/03/11 04:27:30;;;;;;;2.70;1.50;;;2.20;99.90;;;;;;5132248;27;20034;-75
2024/03/11 04:29:56;;;;;;;1.70;1.20;;;2.20;99.90;;;;;;5133284;27;20016;-74
2024/03/11 04:32:24;;;;;;;2.97;1.30;;;2.20;99.90;;;;;;5131340;27;20015;-74
2024/03/11 04:34:49;;;;;;;2.33;1.20;;;2.20;99.90;;;;;;5132674;27;20442;-73
2024/03/11 04:37:15;;;;;;;2.50;1.23;;;2.20;99.90;;;;;;5132973;27;20115;-74
2024/03/11 04:39:40;;;;;;;3.53;2.00;;;2.10;99.90;;;;;;5131362;27;20029;-74
2024/03/11 04:42:06;;;;;;;4.53;1.30;;;2.10;99.90;;;;;;5105244;27;20027;-74
2024/03/11 04:44:32;;;;;;;4.23;1.50;;;2.10;99.90;;;;;;5091202;28;20027;-74
2024/03/11 04:46:57;;;;;;;3.13;1.10;;;2.10;99.90;;;;;;5091728;28;20024;-75
2024/03/11 04:49:23;;;;;;;3.23;1.30;;;2.10;99.90;;;;;;5095962;27;20055;-74
2024/03/11 04:51:48;;;;;;;3.13;1.40;;;2.10;99.90;;;;;;5113295;27;20038;-74
2024/03/11 04:54:16;;;;;;;6.20;2.23;;;2.10;99.90;;;;;;5112480;27;20536;-74
2024/03/11 04:56:43;;;;;;;9.23;2.70;;;2.10;99.90;;;;;;5132335;27;20045;-74
2024/03/11 04:59:09;;;;;;;6.77;2.00;;;2.00;99.90;;;;;;5132726;27;20034;-74
2024/03/11 05:01:34;;;;;;;5.03;1.80;;;2.10;99.90;;;;;;5127427;27;20502;-74
2024/03/11 05:04:00;;;;;;;6.53;1.77;;;2.00;99.90;;;;;;5131573;27;20050;-75
2024/03/11 05:06:25;;;;;;;8.20;2.00;;;2.00;99.90;;;;;;5132118;27;20023;-74
2024/03/11 05:08:51;;;;;;;2.53;1.23;;;2.00;99.90;;;;;;5132261;27;20119;-74
2024/03/11 05:11:17;;;;;;;6.20;2.67;;;2.00;99.90;;;;;;5127367;27;20152;-74
2024/03/11 05:13:46;;;;;;;25.87;7.63;;;1.90;99.90;;;;;;5132587;27;20019;-74
2024/03/11 05:16:11;;;;;;;34.40;10.60;;;1.90;99.90;;;;;;5131884;27;20106;-74
2024/03/11 05:18:37;;;;;;;44.50;13.40;;;1.90;99.90;;;;;;5132442;28;20588;-74
2024/03/11 05:21:02;;;;;;;29.50;7.73;;;1.90;99.90;;;;;;5122493;28;20027;-74
2024/03/11 05:23:28;;;;;;;24.07;7.87;;;2.00;99.90;;;;;;5128222;28;20043;-73
2024/03/11 05:25:53;;;;;;;14.73;5.77;;;2.00;99.90;;;;;;5128126;27;20023;-74
2024/03/11 05:28:19;;;;;;;6.77;2.00;;;1.90;99.90;;;;;;5111888;28;20050;-74
2024/03/11 05:30:44;;;;;;;5.27;1.50;;;1.90;99.90;;;;;;5111700;28;20422;-74
2024/03/11 05:33:10;;;;;;;2.97;1.30;;;1.80;99.90;;;;;;5119009;28;20027;-74
2024/03/11 05:35:36;;;;;;;2.83;1.33;;;1.80;99.90;;;;;;5131810;27;20538;-74
2024/03/11 05:38:01;;;;;;;6.27;1.30;;;1.80;99.90;;;;;;5110771;28;20024;-73
2024/03/11 05:40:27;;;;;;;1.83;1.30;;;1.70;99.90;;;;;;5112836;28;20051;-74
2024/03/11 05:42:53;;;;;;;6.00;2.00;;;1.70;99.90;;;;;;5117096;27;20024;-74
2024/03/11 05:45:19;;;;;;;5.30;1.80;;;1.70;99.90;;;;;;5115593;27;20023;-74
2024/03/11 05:47:45;;;;;;;4.80;1.90;;;1.70;99.90;;;;;;5114934;28;20030;-74
2024/03/11 05:50:12;;;;;;;6.13;1.90;;;1.70;99.90;;;;;;5114937;27;20027;-75
2024/03/11 05:52:38;;;;;;;4.27;1.70;;;1.70;99.90;;;;;;5114891;28;20139;-73
2024/03/11 05:55:11;;;;;;;4.77;1.83;;;1.80;99.90;;;;;;5116937;27;20395;-73
2024/03/11 05:57:37;;;;;;;6.90;1.97;;;1.80;99.90;;;;;;5114076;28;20438;-75
2024/03/11 06:00:09;;;;;;;6.13;1.80;;;1.80;99.90;;;;;;5115643;27;20047;-74
2024/03/11 06:02:38;;;;;;;3.10;1.57;;;1.90;99.90;;;;;;5115085;27;20103;-74
2024/03/11 06:05:05;;;;;;;2.80;1.53;;;1.90;99.90;;;;;;5113583;28;20044;-74
2024/03/11 06:07:30;;;;;;;6.50;1.90;;;1.90;99.90;;;;;;5111487;27;20042;-74
2024/03/11 06:09:56;;;;;;;8.10;1.87;;;2.00;99.90;;;;;;5117246;27;20024;-74
2024/03/11 06:12:21;;;;;;;8.10;1.63;;;2.00;99.90;;;;;;5119494;27;20041;-74
2024/03/11 06:14:48;;;;;;;3.97;1.90;;;2.10;99.90;;;;;;5118977;27;20027;-75
2024/03/11 06:17:15;;;;;;;4.43;1.43;;;2.10;99.90;;;;;;5125188;27;20015;-74
2024/03/11 06:19:41;;;;;;;1.67;1.20;;;2.20;99.90;;;;;;5121460;27;20019;-73
2024/03/11 06:22:10;;;;;;;4.30;1.30;;;2.20;99.90;;;;;;5120095;27;20030;-74
2024/03/11 06:24:37;;;;;;;3.00;1.70;;;2.30;99.90;;;;;;5122434;27;20031;-75
2024/03/11 06:27:04;;;;;;;7.13;2.30;;;2.30;99.90;;;;;;5121138;27;20031;-74
2024/03/11 06:29:30;;;;;;;9.17;2.43;;;2.40;99.90;;;;;;5125395;27;20019;-74
2024/03/11 06:31:58;;;;;;;4.83;2.17;;;2.40;99.90;;;;;;5122260;27;20076;-74
2024/03/11 06:34:23;;;;;;;4.17;1.80;;;2.50;99.90;;;;;;5111670;27;20023;-74
2024/03/11 06:36:50;;;;;;;2.93;2.00;;;2.50;99.90;;;;;;5119734;27;20402;-74
2024/03/11 06:39:16;;;;;;;2.30;1.47;;;2.60;99.90;;;;;;5112292;28;20020;-74
2024/03/11 06:41:41;;;;;;;4.33;1.40;;;2.60;99.90;;;;;;5112877;27;20440;-74
2024/03/11 06:44:07;;;;;;;4.63;1.30;;;2.70;99.90;;;;;;5113025;28;20019;-74
2024/03/11 06:46:33;;;;;;;6.90;1.40;;;2.70;99.90;;;;;;5115608;27;20024;-74
2024/03/11 06:48:59;;;;;;;5.47;1.40;;;2.80;99.90;;;;;;5113912;28;20039;-74
2024/03/11 06:51:24;;;;;;;2.37;1.20;;;2.90;99.90;;;;;;5113326;27;20058;-73
2024/03/11 06:53:50;;;;;;;4.73;1.33;;;3.00;99.90;;;;;;5120656;27;20107;-74
2024/03/11 06:56:18;;;;;;;4.47;1.40;;;3.00;99.90;;;;;;5119426;27;20166;-74
2024/03/11 06:58:43;;;;;;;5.63;1.70;;;3.10;99.90;;;;;;5114110;27;20098;-73
2024/03/11 07:01:11;;;;;;;4.33;1.60;;;3.20;99.90;;;;;;5116849;27;20103;-74
2024/03/11 07:03:37;;;;;;;5.60;1.43;;;3.30;99.90;;;;;;5114347;27;20031;-75
2024/03/11 07:06:04;;;;;;;2.70;1.47;;;3.50;99.90;;;;;;5113007;27;20058;-75
2024/03/11 07:08:32;;;;;;;9.10;1.57;;;3.60;99.90;;;;;;5114092;28;20103;-73
2024/03/11 07:11:00;;;;;;;2.33;1.40;;;3.80;99.90;;;;;;5114019;28;20024;-74
2024/03/11 07:13:29;;;;;;;1.90;1.40;;;3.90;99.90;;;;;;5112754;28;20054;-73
2024/03/11 07:15:55;;;;;;;6.20;1.50;;;4.10;99.90;;;;;;5117626;27;20027;-80
2024/03/11 07:18:22;;;;;;;5.40;1.50;;;4.20;99.90;;;;;;5130183;27;20080;-85
2024/03/11 07:20:52;;;;;;;2.33;1.63;;;4.30;99.90;;;;;;5120850;27;20479;-76
2024/03/11 07:23:18;;;;;;;4.70;1.60;;;4.40;99.90;;;;;;5107573;27;20047;-76
2024/03/11 07:25:44;;;;;;;3.93;1.67;;;4.50;99.90;;;;;;5112875;27;20034;-81
2024/03/11 07:28:12;;;;;;;2.57;1.27;;;4.60;99.90;;;;;;5114976;27;20507;-81
2024/03/11 07:30:39;;;;;;;7.63;1.60;;;4.70;99.90;;;;;;5116270;28;20077;-81
2024/03/11 07:33:06;;;;;;;5.93;1.30;;;4.70;99.90;;;;;;5111429;28;20023;-81
2024/03/11 07:35:33;;;;;;;2.27;1.20;;;4.80;99.90;;;;;;5116147;28;20230;-81
2024/03/11 07:38:00;;;;;;;2.33;1.30;;;4.90;99.90;;;;;;5118834;28;20182;-81
2024/03/11 07:40:26;;;;;;;3.30;1.33;;;4.90;99.90;;;;;;5113597;28;20057;-80
2024/03/11 07:42:51;;;;;;;3.70;1.50;;;4.90;99.90;;;;;;5121501;27;20024;-80
2024/03/11 07:45:20;;;;;;;3.80;1.57;;;5.00;99.90;;;;;;5120224;27;20538;-80
2024/03/11 07:47:46;;;;;;;2.90;1.60;;;5.00;99.90;;;;;;5116084;27;20102;-80
2024/03/11 07:50:13;;;;;;;3.17;1.80;;;5.10;99.90;;;;;;5117636;27;20024;-81
2024/03/11 07:52:39;;;;;;;6.20;1.90;;;5.10;99.90;;;;;;5115993;28;20027;-80
2024/03/11 07:55:06;;;;;;;3.87;1.67;;;5.20;99.90;;;;;;5115751;28;20042;-80
2024/03/11 07:57:33;;;;;;;6.40;2.30;;;5.30;99.90;;;;;;5120048;27;20062;-80
2024/03/11 08:00:00;;;;;;;5.17;2.03;;;5.40;99.90;;;;;;5118216;28;20020;-81
2024/03/11 08:02:26;;;;;;;4.77;1.80;;;5.50;99.90;;;;;;5116034;28;20396;-81
2024/03/11 08:04:52;;;;;;;4.80;1.60;;;5.60;99.90;;;;;;5095776;28;20040;-81
2024/03/11 08:07:18;;;;;;;2.20;1.40;;;5.70;99.90;;;;;;5121422;27;20336;-81
2024/03/11 08:09:44;;;;;;;3.53;1.50;;;5.90;99.90;;;;;;5126673;27;20019;-81
2024/03/11 08:12:09;;;;;;;3.70;1.70;;;6.00;99.90;;;;;;5123783;27;20027;-81
2024/03/11 08:14:35;;;;;;;5.23;1.80;;;6.20;99.90;;;;;;5113333;28;20064;-82
2024/03/11 08:17:05;;;;;;;6.97;2.17;;;6.30;99.90;;;;;;5115243;28;20438;-83
2024/03/11 08:19:32;;;;;;;5.23;1.30;;;6.40;99.90;;;;;;5115840;27;20039;-80
2024/03/11 08:21:57;;;;;;;4.37;1.43;;;6.60;99.90;;;;;;5115085;28;20027;-80
2024/03/11 08:24:24;;;;;;;3.00;1.30;;;6.70;99.90;;;;;;5115340;27;20031;-80
2024/03/11 08:26:50;;;;;;;3.03;1.13;;;6.90;99.90;;;;;;5114408;28;20099;-79
2024/03/11 08:29:15;;;;;;;1.37;1.00;;;7.00;99.90;;;;;;5115276;28;20440;-80
2024/03/11 08:31:41;;;;;;;2.87;1.10;;;7.20;99.90;;;;;;5115386;28;20106;-81
2024/03/11 08:34:06;;;;;;;3.37;1.00;;;7.50;99.90;;;;;;5123025;27;20030;-80
2024/03/11 08:36:32;;;;;;;3.60;1.00;;;7.60;99.90;;;;;;5123346;27;20031;-80
2024/03/11 08:38:58;;;;;;;3.40;1.03;;;7.80;99.90;;;;;;5120895;27;20039;-80
2024/03/11 08:41:23;;;;;;;1.43;0.83;;;8.00;99.90;;;;;;5119933;27;20092;-80
2024/03/11 08:43:49;;;;;;;1.33;0.80;;;8.20;99.90;;;;;;5122086;27;20027;-80
2024/03/11 08:46:16;;;;;;;1.57;0.70;;;8.30;99.90;;;;;;5123596;27;20038;-81
2024/03/11 08:48:42;;;;;;;2.80;0.70;;;8.50;99.90;;;;;;5128569;27;20027;-81
2024/03/11 08:51:08;;;;;;;2.30;0.90;;;8.70;99.90;;;;;;5132663;27;20027;-81
2024/03/11 08:53:33;;;;;;;1.50;0.80;;;8.90;99.90;;;;;;5115763;28;20035;-81
2024/03/11 08:56:00;;;;;;;1.10;0.70;;;9.10;99.90;;;;;;5113847;28;20026;-80
2024/03/11 08:58:26;;;;;;;1.40;0.80;;;9.30;99.90;;;;;;5115081;28;20165;-81
2024/03/11 09:00:52;;;;;;;1.73;0.90;;;9.50;99.90;;;;;;5133585;27;20054;-81
2024/03/11 09:03:18;;;;;;;1.83;0.80;;;9.70;99.90;;;;;;5120420;27;20020;-82
2024/03/11 09:05:45;;;;;;;3.37;1.10;;;9.80;99.90;;;;;;5134388;27;20034;-82
2024/03/11 09:08:11;;;;;;;1.37;0.80;;;10.00;99.90;;;;;;5125168;27;20104;-82
2024/03/11 09:10:37;;;;;;;1.87;0.80;;;10.10;99.90;;;;;;5115526;28;20511;-82
2024/03/11 09:13:03;;;;;;;1.00;0.70;;;10.30;99.90;;;;;;5115600;27;20099;-81
2024/03/11 09:15:29;;;;;;;4.40;1.37;;;10.40;99.90;;;;;;5123580;27;20023;-81
2024/03/11 09:17:54;;;;;;;4.50;0.70;;;10.60;99.90;;;;;;5126342;27;20023;-81
2024/03/11 09:20:22;;;;;;;1.97;1.00;;;10.70;99.90;;;;;;5133427;27;20100;-82
2024/03/11 09:22:53;;;;;;;1.17;0.70;;;10.70;99.90;;;;;;5121808;28;20495;-81
2024/03/11 09:25:23;;;;;;;4.20;0.70;;;10.90;99.90;;;;;;5114160;28;20096;-82
2024/03/11 09:27:54;;;;;;;2.50;0.73;;;11.10;99.90;;;;;;5114389;28;20114;-82
2024/03/11 09:30:20;;;;;;;1.67;0.70;;;11.30;99.90;;;;;;5115262;28;20030;-82
2024/03/11 09:32:49;;;;;;;1.20;0.70;;;11.40;99.90;;;;;;5115066;28;20111;-83
2024/03/11 09:35:16;;;;;;;2.93;0.70;;;11.50;99.90;;;;;;5097282;28;20031;-82
2024/03/11 09:37:46;;;;;;;1.33;0.83;;;11.50;99.90;;;;;;5123252;28;20442;-83
2024/03/11 09:40:16;;;;;;;1.57;0.97;;;11.40;99.90;;;;;;5123742;28;20032;-84
2024/03/11 09:42:45;;;;;;;2.53;1.10;;;11.50;99.90;;;;;;5115448;27;20077;-83
2024/03/11 09:45:12;;;;;;;1.30;0.60;;;11.40;99.90;;;;;;5128890;27;20062;-83
2024/03/11 09:47:41;;;;;;;3.17;0.93;;;11.30;99.90;;;;;;5116301;28;20402;-84
2024/03/11 09:50:11;;;;;;;1.20;0.80;;;11.30;99.90;;;;;;5116148;28;20084;-83
2024/03/11 09:52:41;;;;;;;3.17;0.73;;;11.30;99.90;;;;;;5116477;28;20499;-83
2024/03/11 09:55:07;;;;;;;4.40;0.85;;;11.30;99.90;;;;;;5115533;28;20019;-80
2024/03/11 09:57:37;;;;;;;1.30;0.70;;;11.40;99.90;;;;;;5114925;28;20053;-81
2024/03/11 10:00:12;;;;;;;1.25;0.70;;;11.30;99.90;;;;;;5115408;28;20012;-78
2024/03/11 10:02:42;;;;;;;1.30;0.57;;;11.30;99.90;;;;;;5117659;28;20020;-81
2024/03/11 10:05:08;;;;;;;1.40;0.70;;;11.20;99.90;;;;;;5128405;27;20449;-82
2024/03/11 10:07:34;;;;;;;1.15;0.80;;;11.20;99.90;;;;;;5134581;28;20023;-73
2024/03/11 10:10:07;;;;;;;1.60;0.80;;;11.20;99.90;;;;;;5121595;28;20076;-76
2024/03/11 10:12:33;;;;;;;2.15;0.77;;;11.20;99.90;;;;;;5118537;28;20042;-81
2024/03/11 10:15:00;;;;;;;5.25;1.00;;;11.30;99.90;;;;;;5121139;27;20073;-81
2024/03/11 10:17:32;;;;;;;1.08;0.70;;;11.40;99.90;;;;;;5118310;28;20043;-81
2024/03/11 10:20:06;;;;;;;1.17;0.80;;;11.50;99.90;;;;;;5119535;28;20408;-80
2024/03/11 10:22:35;;;;;;;3.13;0.80;;;11.50;99.90;;;;;;5118067;28;20015;-81
2024/03/11 10:25:06;;;;;;;2.95;1.05;;;11.60;99.90;;;;;;5120294;27;20039;-80
2024/03/11 10:27:39;;;;;;;1.52;0.60;;;11.70;99.90;;;;;;5123491;27;20020;-81
2024/03/11 10:30:19;;;;;;;1.70;0.80;;;11.90;99.90;;;;;;5104847;27;20514;-81
2024/03/11 10:32:45;;;;;;;1.05;0.68;;;12.10;99.90;;;;;;5119376;27;20019;-81
2024/03/11 10:35:20;;;;;;;2.10;0.70;;;12.30;99.90;;;;;;5123365;27;20128;-82
2024/03/11 10:37:45;;;;;;;1.52;0.70;;;12.40;99.90;;;;;;5127028;27;20123;-81
2024/03/11 10:40:20;;;;;;;0.60;0.60;;;12.40;99.90;;;;;;5121284;27;20055;-81
2024/03/11 10:42:53;;;;;;;4.95;0.80;;;12.50;99.90;;;;;;5122473;27;20122;-82
2024/03/11 10:45:35;;;;;;;2.30;1.20;;;12.70;99.90;;;;;;5124853;27;20081;-82
2024/03/11 10:48:02;;;;;;;0.75;0.60;;;13.00;99.90;;;;;;5121379;27;20055;-81
2024/03/11 10:50:32;;;;;;;0.82;0.60;;;13.30;99.90;;;;;;5124995;27;20035;-82
2024/03/11 10:52:58;;;;;;;0.90;0.60;;;13.50;99.90;;;;;;5124614;27;20035;-81
2024/03/11 10:55:32;;;;;;;1.15;0.60;;;13.40;99.90;;;;;;5116888;27;20454;-82
2024/03/11 10:58:03;;;;;;;1.90;0.77;;;13.40;99.90;;;;;;5120395;27;20111;-82
2024/03/11 11:00:36;;;;;;;2.28;0.75;;;13.50;99.90;;;;;;5124770;27;20024;-83
2024/03/11 11:03:08;;;;;;;0.68;0.60;;;13.60;99.90;;;;;;5122446;27;20039;-83
2024/03/11 11:05:39;;;;;;;1.73;0.82;;;13.80;99.90;;;;;;5132070;27;20080;-83
2024/03/11 11:08:06;;;;;;;0.80;0.50;;;13.90;99.90;;;;;;5134397;27;20023;-83
2024/03/11 11:10:35;;;;;;;0.80;0.60;;;13.90;99.90;;;;;;5124415;27;20027;-83
2024/03/11 11:13:02;;;;;;;0.73;0.68;;;13.90;99.90;;;;;;5124336;27;20019;-83
2024/03/11 11:15:28;;;;;;;1.25;0.70;;;14.00;99.90;;;;;;5140672;27;20087;-83
2024/03/11 11:17:55;;;;;;;2.30;0.90;;;13.90;99.90;;;;;;5141026;27;20023;-83
2024/03/11 11:20:30;;;;;;;1.80;0.77;;;14.00;99.90;;;;;;5140727;27;20019;-83
2024/03/11 11:22:59;;;;;;;1.90;0.70;;;14.20;99.90;;;;;;5140602;27;20019;-83
2024/03/11 11:25:39;;;;;;;;;;;14.20;99.90;;;;;;5140439;27;20047;-83
2024/03/11 11:28:14;;;;;;;;;;;14.60;99.90;;;;;;5131177;27;20403;-84
2024/03/11 11:30:43;;;;;;;;;;;14.60;99.90;;;;;;5129171;27;20118;-83
2024/03/11 11:33:12;;;;;;;;;;;14.80;99.90;;;;;;5125565;28;20099;-84
2024/03/11 11:35:43;;;;;;;;;;;14.90;99.90;;;;;;5124568;28;20041;-84
2024/03/11 11:38:24;;;;;;;;;;;14.90;99.90;;;;;;5124580;28;20536;-84
2024/03/11 11:40:53;;;;;;;;;;;15.00;99.90;;;;;;5120842;28;20039;-83
2024/03/11 11:43:20;;;;;;;;;;;15.00;99.90;;;;;;5121528;28;20031;-83
2024/03/11 11:45:56;;;;;;;;;;;14.90;99.90;;;;;;5123924;28;20124;-84
2024/03/11 11:48:25;;;;;;;;;;;15.00;99.90;;;;;;5116210;28;20031;-83
2024/03/11 11:50:52;;;;;;;;;;;15.10;99.90;;;;;;5117952;28;20096;-83
2024/03/11 11:53:29;;;;;;;;;;;15.10;99.90;;;;;;5119954;28;21079;-83
2024/03/11 11:55:56;;;;;;;;;;;15.00;99.90;;;;;;5118319;28;20030;-83
2024/03/11 11:58:22;;;;;;;;;;;14.80;99.90;;;;;;5117447;27;20045;-83
2024/03/11 12:00:56;;;;;;;;;;;15.00;99.90;;;;;;5126525;27;20124;-83
2024/03/11 12:03:30;;;;;;;;;;;15.00;99.90;;;;;;5127989;27;20090;-83
2024/03/11 12:06:02;;;;;;;;;;;15.00;99.90;;;;;;5123657;27;20114;-83
2024/03/11 12:08:29;;;;;;;;;;;15.30;99.90;;;;;;5123586;27;20032;-83
2024/03/11 12:11:07;;;;;;;;;;;15.40;99.90;;;;;;5124280;27;20078;-82
2024/03/11 12:13:32;;;;;;;;;;;15.40;99.90;;;;;;5125508;27;20027;-83
2024/03/11 12:16:10;;;;;;;;;;;15.50;99.90;;;;;;5115414;27;20692;-79
2024/03/11 12:18:39;;;;;;;;;;;15.40;99.90;;;;;;5123362;27;20513;-81
2024/03/11 12:21:11;;;;;;;;;;;15.70;99.90;;;;;;5128436;27;20074;-73
2024/03/11 12:23:37;;;;;;;;;;;15.60;99.90;;;;;;5120501;27;20030;-72
2024/03/11 12:26:06;;;;;;;;;;;16.00;99.90;;;;;;5101426;28;20045;-73
2024/03/11 12:28:32;;;;;;;;;;;15.70;99.90;;;;;;5115506;27;20027;-71
2024/03/11 12:30:58;;;;;;;;;;;15.80;99.90;;;;;;5121109;27;20034;-73
2024/03/11 12:33:23;;;;;;;;;;;15.80;99.90;;;;;;5122238;27;20038;-71
2024/03/11 12:35:52;;;;;;;;;;;15.80;99.90;;;;;;5119672;27;20038;-72
2024/03/11 12:38:19;;;;;;;2.00;0.60;;;15.80;99.90;;;;;;5097607;27;20138;-72
2024/03/11 12:40:44;;;;;;;;;;;15.80;99.90;;;;;;5117713;27;20429;-71
2024/03/11 12:43:20;;;;;;;;;;;16.00;99.90;;;;;;5124670;27;20046;-73
2024/03/11 12:45:48;;;;;;;;;;;16.10;99.90;;;;;;5119253;27;20053;-72
2024/03/11 12:48:15;;;;;;;;;;;15.90;99.90;;;;;;5119106;27;20038;-73
2024/03/11 12:50:45;;;;;;;;;;;15.80;99.90;;;;;;5132526;27;20040;-72
2024/03/11 12:53:14;;;;;;;;;;;15.60;99.90;;;;;;5125187;27;20030;-71
2024/03/11 12:55:40;;;;;;;;;;;15.70;99.90;;;;;;5130793;27;20059;-72
2024/03/11 12:58:12;;;;;;;;;;;15.50;99.90;;;;;;5128933;27;20781;-72
2024/03/11 13:00:41;;;;;;;;;;;15.50;99.90;;;;;;5123433;27;20197;-72
2024/03/11 13:03:08;;;;;;;;;;;15.50;99.90;;;;;;5116155;27;20416;-72